Time;durP1;ratioP1;P1;durP2;ratioP2;P2;SDS_P1;SDS_P2;PMS_P1;PMS_P2;Temp;Humidity;BMP_temperature;BMP_pressure;BME280_temperature;BME280_humidity;BME280_pressure;Samples;Min_cycle;Max_cycle;Signal;HPM_P1;HPM_P2
2023/03/03 04:57:13;;;;;;;69.40;29.77;;;;;;;;;;5894138;23;20463;-76
2023/03/03 04:59:41;;;;;;;66.40;30.40;;;;;;;;;;5018793;23;20508;-75
2023/03/03 05:02:08;;;;;;;59.33;26.00;;;;;;;;;;4916913;29;20476;-74
2023/03/03 05:04:35;;;;;;;59.67;24.70;;;;;;;;;;4912970;29;20486;-74
2023/03/03 05:07:02;;;;;;;58.40;25.03;;;;;;;;;;4914764;29;20456;-74
2023/03/03 05:09:29;;;;;;;56.53;25.73;;;;;;;;;;4914691;29;20467;-74
2023/03/03 05:11:57;;;;;;;61.90;28.23;;;;;;;;;;4914298;29;20459;-74
2023/03/03 05:14:25;;;;;;;57.77;26.90;;;;;;;;;;4913480;29;20460;-74
2023/03/03 05:16:52;;;;;;;62.17;30.80;;;;;;;;;;4913112;29;20459;-74
2023/03/03 05:19:19;;;;;;;64.97;31.20;;;;;;;;;;4911401;29;20463;-73
2023/03/03 05:21:46;;;;;;;61.57;29.77;;;;;;;;;;4893113;29;20484;-74
2023/03/03 05:24:14;;;;;;;56.93;25.27;;;;;;;;;;4893766;29;20499;-74
2023/03/03 05:26:41;;;;;;;54.60;29.97;;;;;;;;;;4894053;29;20464;-74
2023/03/03 05:29:09;;;;;;;64.73;29.50;;;;;;;;;;4894141;29;20460;-73
2023/03/03 05:31:37;;;;;;;53.13;25.70;;;;;;;;;;4886384;29;20476;-74
2023/03/03 05:34:05;;;;;;;56.97;27.90;;;;;;;;;;4875429;29;20460;-72
2023/03/03 05:36:32;;;;;;;60.40;28.70;;;;;;;;;;4874810;29;20810;-73
2023/03/03 05:38:59;;;;;;;56.67;26.00;;;;;;;;;;4892647;29;20547;-73
2023/03/03 05:41:26;;;;;;;62.73;30.00;;;;;;;;;;4893932;29;20898;-73
2023/03/03 05:43:53;;;;;;;69.37;33.00;;;;;;;;;;4894054;29;20490;-70
2023/03/03 05:46:20;;;;;;;58.27;25.37;;;;;;;;;;4892618;29;20449;-71
2023/03/03 05:48:49;;;;;;;65.27;28.57;;;;;;;;;;4892691;29;20452;-73
2023/03/03 05:51:15;;;;;;;67.88;34.10;;;1.60;99.90;;;;;;4891755;29;20448;-73
2023/03/03 05:53:42;;;;;;;70.10;31.30;;;1.50;99.90;;;;;;4891668;29;20207;-73
2023/03/03 05:56:09;;;;;;;65.97;30.63;;;1.40;99.90;;;;;;4889802;29;20460;-72
2023/03/03 05:58:36;;;;;;;59.67;27.80;;;1.40;99.90;;;;;;4892284;29;20468;-73
2023/03/03 06:01:03;;;;;;;76.00;31.37;;;1.50;99.90;;;;;;4892124;29;20476;-73
2023/03/03 06:03:30;;;;;;;53.00;27.07;;;1.60;99.90;;;;;;4881726;29;20513;-73
2023/03/03 06:05:58;;;;;;;60.03;27.43;;;1.40;99.90;;;;;;4891598;29;20895;-71
2023/03/03 06:08:25;;;;;;;60.63;27.73;;;1.50;99.90;;;;;;4883395;29;20457;-72
2023/03/03 06:10:52;;;;;;;76.07;30.23;;;1.50;99.90;;;;;;4881211;29;20457;-71
2023/03/03 06:13:19;;;;;;;63.67;29.03;;;1.50;99.90;;;;;;4892030;29;20464;-72
2023/03/03 06:15:46;;;;;;;58.33;28.50;;;1.40;99.90;;;;;;4892096;29;20459;-73
2023/03/03 06:18:12;;;;;;;61.20;28.90;;;1.50;99.90;;;;;;4882022;29;20471;-72
2023/03/03 06:20:39;;;;;;;70.60;28.60;;;1.50;99.90;;;;;;4883724;29;20472;-72
2023/03/03 06:23:08;;;;;;;68.13;31.77;;;1.50;99.90;;;;;;4883319;29;20604;-71
2023/03/03 06:25:35;;;;;;;70.67;30.20;;;1.50;99.90;;;;;;4892408;29;20836;-71
2023/03/03 06:28:01;;;;;;;76.83;30.47;;;1.50;99.90;;;;;;4889143;29;20473;-71
2023/03/03 06:30:29;;;;;;;68.77;34.73;;;1.50;99.90;;;;;;4891117;29;20467;-70
2023/03/03 06:32:56;;;;;;;69.17;30.73;;;1.50;99.90;;;;;;4892227;29;20461;-70
2023/03/03 06:35:23;;;;;;;66.73;32.33;;;1.50;99.90;;;;;;4893051;29;20453;-70
2023/03/03 06:37:50;;;;;;;73.90;29.07;;;1.50;99.90;;;;;;4893664;29;20491;-71
2023/03/03 06:40:18;;;;;;;68.60;31.60;;;1.50;99.90;;;;;;4893776;29;20464;-70
2023/03/03 06:42:45;;;;;;;60.67;28.93;;;1.50;99.90;;;;;;4891773;29;20456;-69
2023/03/03 06:45:13;;;;;;;63.03;28.57;;;1.60;99.90;;;;;;4877893;29;21009;-72
2023/03/03 06:47:40;;;;;;;71.73;30.07;;;1.60;99.90;;;;;;4877294;29;20479;-71
2023/03/03 06:50:08;;;;;;;66.97;28.00;;;1.60;99.90;;;;;;4888304;29;20469;-71
2023/03/03 06:52:35;;;;;;;64.87;29.50;;;1.60;99.90;;;;;;4891366;29;20956;-69
2023/03/03 06:55:11;;;;;;;69.07;30.13;;;1.60;99.90;;;;;;4890741;29;20985;-69
2023/03/03 06:57:40;;;;;;;65.40;29.10;;;1.60;99.90;;;;;;4889796;29;20471;-69
2023/03/03 07:00:19;;;;;;;71.47;32.00;;;1.60;99.90;;;;;;4873843;29;20488;-71
2023/03/03 07:02:46;;;;;;;61.83;28.70;;;1.60;99.90;;;;;;4883557;29;20821;-71
2023/03/03 07:05:15;;;;;;;68.00;31.10;;;1.70;99.90;;;;;;4886970;29;20480;-69
2023/03/03 07:07:43;;;;;;;72.07;33.63;;;1.70;99.90;;;;;;4880728;29;21138;-70
2023/03/03 07:10:20;;;;;;;67.17;30.23;;;1.80;99.90;;;;;;4889481;29;21011;-70
2023/03/03 07:12:48;;;;;;;55.20;25.87;;;1.70;99.90;;;;;;4884316;29;20958;-70
2023/03/03 07:15:19;;;;;;;74.93;31.73;;;1.70;99.90;;;;;;4889380;29;20967;-70
2023/03/03 07:17:49;;;;;;;69.70;31.20;;;1.60;99.90;;;;;;4880491;29;20536;-70
2023/03/03 07:20:20;;;;;;;60.10;29.47;;;1.60;99.90;;;;;;4883573;29;20480;-70
2023/03/03 07:22:48;;;;;;;72.93;32.33;;;1.60;99.90;;;;;;4888436;29;20479;-71
2023/03/03 07:25:21;;;;;;;75.23;33.17;;;1.60;99.90;;;;;;4882267;29;21140;-70
2023/03/03 07:27:50;;;;;;;66.63;28.23;;;1.70;99.90;;;;;;4892712;29;20981;-70
2023/03/03 07:30:26;;;;;;;67.80;28.40;;;1.70;99.90;;;;;;4886129;29;20473;-71
2023/03/03 07:32:55;;;;;;;75.27;29.87;;;1.70;99.90;;;;;;4895569;29;20914;-72
2023/03/03 07:35:38;;;;;;;73.33;29.67;;;1.80;99.90;;;;;;4894954;29;20464;-71
2023/03/03 07:38:23;;;;;;;65.70;32.17;;;1.70;99.90;;;;;;4876273;29;20442;-73
2023/03/03 07:40:52;;;;;;;70.27;28.43;;;1.70;99.90;;;;;;4876616;29;20536;-72
2023/03/03 07:43:40;;;;;;;57.63;30.30;;;1.90;99.90;;;;;;4881230;29;20588;-72
2023/03/03 07:46:27;;;;;;;69.77;30.30;;;1.80;99.90;;;;;;4894699;29;20467;-72
2023/03/03 07:48:55;;;;;;;70.93;33.20;;;1.90;99.90;;;;;;4894590;29;20827;-72
2023/03/03 07:51:26;;;;;;;64.93;29.90;;;1.80;99.90;;;;;;4895645;29;20461;-72
2023/03/03 07:53:54;;;;;;;66.70;29.23;;;1.90;99.90;;;;;;4894808;29;20934;-72
2023/03/03 07:56:29;;;;;;;76.07;29.97;;;2.00;99.90;;;;;;4892516;29;20936;-71
2023/03/03 07:58:58;;;;;;;67.13;30.00;;;2.00;99.90;;;;;;4891888;29;20472;-72
2023/03/03 08:01:40;;;;;;;61.43;32.60;;;2.00;99.90;;;;;;4888122;29;20510;-71
2023/03/03 08:04:16;;;;;;;65.83;31.40;;;2.00;99.90;;;;;;4888287;29;20497;-71
2023/03/03 08:06:48;;;;;;;65.03;29.10;;;2.10;99.90;;;;;;4896840;29;20461;-72
2023/03/03 08:09:35;;;;;;;65.00;32.00;;;2.10;99.90;;;;;;4897509;29;20568;-71
2023/03/03 08:12:19;;;;;;;67.40;35.70;;;2.10;99.90;;;;;;4894509;29;20544;-72
2023/03/03 08:14:47;;;;;;;75.50;33.20;;;2.10;99.90;;;;;;4892340;29;20471;-72
2023/03/03 08:17:17;;;;;;;65.90;31.13;;;2.10;99.90;;;;;;4895571;29;20512;-74
2023/03/03 08:19:44;;;;;;;60.90;27.43;;;2.10;99.90;;;;;;4892067;29;20493;-71
2023/03/03 08:22:16;;;;;;;68.93;29.70;;;2.10;99.90;;;;;;4892450;29;20469;-73
2023/03/03 08:24:43;;;;;;;61.40;28.13;;;2.20;99.90;;;;;;4895473;29;20492;-74
2023/03/03 08:27:09;;;;;;;64.60;32.00;;;2.50;99.90;;;;;;4883441;29;20469;-71
2023/03/03 08:29:36;;;;;;;58.07;28.50;;;2.30;99.90;;;;;;4877738;29;20450;-71
2023/03/03 08:32:05;;;;;;;79.80;30.50;;;2.30;99.90;;;;;;4882759;29;20972;-70
2023/03/03 08:34:32;;;;;;;68.83;32.13;;;2.40;99.90;;;;;;4896255;29;20472;-71
2023/03/03 08:36:59;;;;;;;63.30;31.40;;;2.40;99.90;;;;;;4883781;29;20467;-70
2023/03/03 08:39:26;;;;;;;67.27;28.70;;;2.40;99.90;;;;;;4890373;29;20463;-70
2023/03/03 08:41:53;;;;;;;57.30;27.77;;;2.40;99.90;;;;;;4895492;29;20450;-69
2023/03/03 08:44:20;;;;;;;68.43;32.17;;;2.60;99.90;;;;;;4895547;29;20492;-71
2023/03/03 08:46:47;;;;;;;63.00;32.30;;;2.50;99.90;;;;;;4895379;29;20450;-70
2023/03/03 08:49:15;;;;;;;65.47;30.10;;;2.60;99.90;;;;;;4895057;29;20445;-72
2023/03/03 08:51:42;;;;;;;71.50;34.13;;;2.50;99.90;;;;;;4894664;29;20463;-71
2023/03/03 08:54:09;;;;;;;71.23;32.60;;;2.60;99.90;;;;;;4885725;29;20461;-71
2023/03/03 08:56:36;;;;;;;57.17;30.17;;;2.70;99.90;;;;;;4876095;29;20486;-71
2023/03/03 08:59:03;;;;;;;58.27;29.40;;;2.60;99.90;;;;;;4876417;29;20453;-72
2023/03/03 09:01:30;;;;;;;56.67;30.27;;;2.80;99.90;;;;;;4875851;29;20491;-71
2023/03/03 09:03:58;;;;;;;62.97;36.20;;;2.90;99.90;;;;;;4877049;29;20585;-76
2023/03/03 09:06:26;;;;;;;65.70;32.50;;;2.80;99.90;;;;;;4876707;29;20462;-71
2023/03/03 09:08:54;;;;;;;65.97;31.50;;;2.70;99.90;;;;;;4889161;29;20564;-71
2023/03/03 09:11:26;;;;;;;63.07;31.70;;;2.80;99.90;;;;;;4896636;29;20456;-72
2023/03/03 09:14:02;;;;;;;64.17;30.60;;;2.90;99.90;;;;;;4899213;29;20461;-70
2023/03/03 09:16:34;;;;;;;62.63;28.67;;;2.80;99.90;;;;;;4891611;29;20469;-70
2023/03/03 09:19:21;;;;;;;64.93;30.80;;;3.10;99.90;;;;;;4894248;29;20461;-72
2023/03/03 09:21:51;;;;;;;71.93;30.40;;;3.30;99.90;;;;;;4894450;29;20453;-70
2023/03/03 09:24:25;;;;;;;72.53;31.27;;;3.40;99.90;;;;;;4894896;29;20497;-71
2023/03/03 09:26:53;;;;;;;71.57;33.40;;;3.30;99.90;;;;;;4894987;29;21172;-70
2023/03/03 09:29:26;;;;;;;61.83;29.17;;;3.20;99.90;;;;;;4894512;29;20881;-70
2023/03/03 09:31:54;;;;;;;57.10;28.70;;;3.50;99.90;;;;;;4876902;29;20450;-71
2023/03/03 09:34:24;;;;;;;68.10;31.73;;;3.80;99.90;;;;;;4879377;29;20476;-72
2023/03/03 09:36:54;;;;;;;57.20;28.67;;;3.60;99.90;;;;;;4876450;29;20486;-70
2023/03/03 09:39:23;;;;;;;63.93;27.80;;;4.20;99.90;;;;;;4874373;29;20513;-69
2023/03/03 09:42:29;;;;;;;55.33;27.00;;;4.70;99.90;;;;;;4874631;29;20661;-69
2023/03/03 09:45:20;;;;;;;58.17;30.17;;;5.00;99.90;;;;;;4874178;29;20497;-71
2023/03/03 09:48:08;;;;;;;58.07;32.63;;;4.80;99.90;;;;;;4890883;29;20465;-70
2023/03/03 09:50:47;;;;;;;65.53;32.40;;;3.60;99.90;;;;;;4893980;29;20968;-70
2023/03/03 09:53:28;;;;;;;75.93;32.90;;;3.60;99.90;;;;;;4894153;29;20480;-73
2023/03/03 09:55:59;;;;;;;54.90;28.10;;;3.70;99.90;;;;;;4893989;29;20459;-69
2023/03/03 09:58:45;;;;;;;61.70;29.30;;;4.10;99.90;;;;;;4892638;29;20469;-70
2023/03/03 10:01:40;;;;;;;48.93;27.00;;;4.80;99.90;;;;;;4892539;29;21025;-72
2023/03/03 10:04:37;;;;;;;64.90;32.17;;;5.10;99.90;;;;;;4894805;29;20860;-72
2023/03/03 10:07:19;;;;;;;57.00;28.67;;;4.00;99.90;;;;;;4893897;29;20457;-72
2023/03/03 10:10:14;;;;;;;57.40;28.73;;;4.20;99.90;;;;;;4893179;29;20455;-72
2023/03/03 10:12:50;;;;;;;53.87;28.00;;;4.00;99.90;;;;;;4891407;29;20462;-72
2023/03/03 10:15:27;;;;;;;54.70;29.50;;;4.50;99.90;;;;;;4892955;29;20456;-72
2023/03/03 10:18:03;;;;;;;58.33;31.47;;;4.10;99.90;;;;;;4890456;29;20470;-71
2023/03/03 10:20:42;;;;;;;55.17;30.47;;;3.90;99.90;;;;;;4892213;29;20880;-73
2023/03/03 10:23:20;;;;;;;71.00;31.57;;;4.10;99.90;;;;;;4893932;29;20504;-73
2023/03/03 10:25:55;;;;;;;60.30;31.37;;;4.10;99.90;;;;;;4893677;29;21103;-72
2023/03/03 10:28:41;;;;;;;69.33;34.90;;;4.20;99.90;;;;;;4893979;29;20871;-72
2023/03/03 10:31:15;;;;;;;64.73;29.67;;;3.80;99.90;;;;;;4886676;29;20494;-72
2023/03/03 10:33:51;;;;;;;60.93;31.53;;;4.30;99.90;;;;;;4875808;29;20450;-71
2023/03/03 10:36:39;;;;;;;62.00;31.23;;;4.00;99.90;;;;;;4881921;29;20849;-70
2023/03/03 10:39:48;;;;;;;63.37;31.00;;;3.80;99.90;;;;;;4885081;29;20545;-70
2023/03/03 10:42:29;;;;;;;65.50;31.20;;;3.90;99.90;;;;;;4856930;29;20463;-70
2023/03/03 10:45:22;;;;;;;64.90;34.13;;;4.10;99.90;;;;;;4894481;29;20883;-69
2023/03/03 10:48:14;;;;;;;50.93;29.93;;;4.10;99.90;;;;;;4897036;29;20959;-71
2023/03/03 10:50:51;;;;;;;69.13;32.70;;;4.40;99.90;;;;;;4896599;29;20445;-72
2023/03/03 10:53:25;;;;;;;69.13;31.07;;;4.60;99.90;;;;;;4895798;29;20457;-70
2023/03/03 10:56:04;;;;;;;57.63;30.13;;;5.00;99.90;;;;;;4895672;29;20449;-73
2023/03/03 10:58:49;;;;;;;56.07;32.33;;;5.00;99.90;;;;;;4895802;29;20461;-71
2023/03/03 11:01:26;;;;;;;63.37;33.97;;;4.60;99.90;;;;;;4896298;29;20481;-79
2023/03/03 11:04:19;;;;;;;76.27;37.13;;;5.10;99.90;;;;;;4896076;29;20461;-71
2023/03/03 11:06:54;;;;;;;58.47;30.33;;;5.00;99.90;;;;;;4896909;29;20980;-76
2023/03/03 11:09:39;;;;;;;58.23;31.20;;;4.80;99.90;;;;;;4896844;29;20816;-81
2023/03/03 11:12:19;;;;;;;60.07;31.90;;;4.60;99.90;;;;;;4896870;29;20453;-75
2023/03/03 11:14:54;;;;;;;66.33;30.70;;;4.70;99.90;;;;;;4895757;29;20454;-74
2023/03/03 11:17:31;;;;;;;60.40;28.17;;;5.10;99.90;;;;;;4895759;29;20980;-74
2023/03/03 11:20:05;;;;;;;60.03;32.80;;;4.90;99.90;;;;;;4895422;29;20512;-71
2023/03/03 11:22:41;;;;;;;58.73;32.97;;;4.80;99.90;;;;;;4884758;29;20463;-76
2023/03/03 11:25:27;;;;;;;56.33;30.87;;;5.10;99.90;;;;;;4888827;29;20503;-75
2023/03/03 11:28:17;;;;;;;60.17;33.00;;;4.80;99.90;;;;;;4892101;29;20470;-75
2023/03/03 11:31:00;;;;;;;55.57;27.90;;;4.70;99.90;;;;;;4886688;29;20481;-74
2023/03/03 11:33:33;;;;;;;46.93;27.73;;;5.40;99.90;;;;;;4895381;29;20449;-74
2023/03/03 11:36:09;;;;;;;55.00;30.57;;;6.00;99.90;;;;;;4895087;29;20457;-73
2023/03/03 11:38:46;;;;;;;52.87;30.00;;;6.40;99.90;;;;;;4894848;29;20441;-74
2023/03/03 11:41:23;;;;;;;53.27;30.60;;;6.60;99.90;;;;;;4897328;29;20480;-79
2023/03/03 11:43:54;;;;;;;57.90;30.17;;;6.50;99.90;;;;;;4901496;29;20998;-73
2023/03/03 11:46:26;;;;;;;54.50;30.90;;;6.20;99.90;;;;;;4897256;29;20488;-73
2023/03/03 11:48:58;;;;;;;63.30;30.33;;;5.90;99.90;;;;;;4894043;29;20458;-75
2023/03/03 11:51:35;;;;;;;64.43;36.20;;;5.60;99.90;;;;;;4894934;29;20873;-75
2023/03/03 11:54:09;;;;;;;70.53;30.20;;;5.00;99.90;;;;;;4898188;29;21040;-76
2023/03/03 11:56:40;;;;;;;70.17;32.17;;;5.00;99.90;;;;;;4899692;29;20441;-78
2023/03/03 11:59:44;;;;;;;60.50;30.67;;;4.90;99.90;;;;;;4895311;29;20481;-75
2023/03/03 12:02:31;;;;;;;63.40;30.80;;;5.50;99.90;;;;;;4883763;29;20476;-73
2023/03/03 12:05:04;;;;;;;58.63;31.33;;;5.40;99.90;;;;;;4899267;29;20496;-73
2023/03/03 12:07:40;;;;;;;63.53;32.23;;;5.30;99.90;;;;;;4890658;29;20472;-74
2023/03/03 12:10:17;;;;;;;51.80;30.30;;;5.60;99.90;;;;;;4893478;29;20457;-76
2023/03/03 12:12:50;;;;;;;53.83;29.00;;;5.90;99.90;;;;;;4894302;29;20947;-73
2023/03/03 12:15:26;;;;;;;49.40;30.50;;;6.30;99.90;;;;;;4893894;29;20552;-75
2023/03/03 12:18:20;;;;;;;54.27;31.70;;;5.80;99.90;;;;;;4890576;29;20476;-74
2023/03/03 12:20:55;;;;;;;56.63;29.37;;;5.70;99.90;;;;;;4894950;29;20481;-75
2023/03/03 12:23:44;;;;;;;49.20;27.60;;;6.10;99.90;;;;;;4894791;29;20456;-72
2023/03/03 12:26:16;;;;;;;56.70;34.97;;;7.10;99.90;;;;;;4891612;29;21032;-74
2023/03/03 12:28:49;;;;;;;64.20;31.90;;;6.20;99.90;;;;;;4891459;29;20553;-73
2023/03/03 12:31:29;;;;;;;57.33;31.40;;;6.10;99.90;;;;;;4893356;29;20476;-71
2023/03/03 12:34:02;;;;;;;60.30;31.97;;;6.10;99.90;;;;;;4894247;29;20457;-70
2023/03/03 12:36:47;;;;;;;60.23;30.50;;;5.70;99.90;;;;;;4894462;29;21072;-73
2023/03/03 12:39:27;;;;;;;61.20;34.27;;;6.00;99.90;;;;;;4897632;29;20454;-75
2023/03/03 12:42:03;;;;;;;50.33;29.43;;;5.50;99.90;;;;;;4902667;29;20465;-75
2023/03/03 12:44:38;;;;;;;67.23;33.30;;;5.20;99.90;;;;;;4900338;29;20476;-73
2023/03/03 12:47:17;;;;;;;52.80;31.40;;;5.40;99.90;;;;;;4895056;29;20462;-76
2023/03/03 12:49:55;;;;;;;58.47;33.77;;;5.50;99.90;;;;;;4894683;29;20878;-72
2023/03/03 12:52:32;;;;;;;51.43;28.40;;;5.30;99.90;;;;;;4894212;29;20469;-73
2023/03/03 12:55:08;;;;;;;50.90;28.27;;;5.50;99.90;;;;;;4894423;29;20457;-74
2023/03/03 12:57:43;;;;;;;60.50;33.87;;;5.50;99.90;;;;;;4891119;29;20537;-73
2023/03/03 13:00:31;;;;;;;62.00;31.60;;;5.80;99.90;;;;;;4888944;29;20505;-74
2023/03/03 13:03:05;;;;;;;53.90;27.00;;;5.70;99.90;;;;;;4888781;29;20471;-75
2023/03/03 13:05:44;;;;;;;56.23;29.23;;;6.40;99.90;;;;;;4890738;29;20498;-73
2023/03/03 13:08:37;;;;;;;54.30;29.77;;;6.60;99.90;;;;;;4890853;29;20449;-78
2023/03/03 13:11:18;;;;;;;61.67;30.73;;;6.50;99.90;;;;;;4892676;29;20456;-74
2023/03/03 13:13:54;;;;;;;55.30;29.90;;;5.80;99.90;;;;;;4883172;29;20469;-74
2023/03/03 13:16:27;;;;;;;58.73;31.63;;;5.90;99.90;;;;;;4888667;29;20468;-73
2023/03/03 13:18:58;;;;;;;49.70;26.10;;;6.00;99.90;;;;;;4883174;29;20490;-74
2023/03/03 13:21:31;;;;;;;60.03;29.00;;;6.10;99.90;;;;;;4891284;29;20481;-75
2023/03/03 13:24:05;;;;;;;56.90;29.67;;;6.40;99.90;;;;;;4890126;29;20450;-72
2023/03/03 13:26:37;;;;;;;55.13;28.40;;;6.50;99.90;;;;;;4889468;29;20485;-74
2023/03/03 13:29:13;;;;;;;61.17;31.60;;;6.00;99.90;;;;;;4890835;29;20944;-74
2023/03/03 13:31:41;;;;;;;52.77;28.20;;;5.90;99.90;;;;;;4891715;29;20533;-73
2023/03/03 13:34:19;;;;;;;50.17;28.03;;;5.80;99.90;;;;;;4888594;29;20452;-73
2023/03/03 13:36:55;;;;;;;54.60;32.83;;;6.50;99.90;;;;;;4890813;29;20480;-73
2023/03/03 13:39:26;;;;;;;55.93;28.40;;;6.20;99.90;;;;;;4891688;29;20512;-74
2023/03/03 13:42:00;;;;;;;59.80;33.03;;;6.60;99.90;;;;;;4886141;29;20457;-74
2023/03/03 13:44:31;;;;;;;55.63;30.90;;;6.50;99.90;;;;;;4889167;29;20442;-75
2023/03/03 13:47:12;;;;;;;54.40;30.77;;;6.30;99.90;;;;;;4888752;29;20498;-75
2023/03/03 13:50:00;;;;;;;62.00;31.20;;;6.50;99.90;;;;;;4890984;29;20462;-74
2023/03/03 13:52:31;;;;;;;48.30;29.50;;;6.40;99.90;;;;;;4886621;29;20494;-74
2023/03/03 13:55:15;;;;;;;59.50;33.03;;;7.50;99.90;;;;;;4889192;29;20530;-73
2023/03/03 13:57:58;;;;;;;49.23;29.87;;;8.10;99.90;;;;;;4889965;29;20470;-71
2023/03/03 14:00:46;;;;;;;49.77;27.33;;;9.10;99.90;;;;;;4890843;29;20481;-74
2023/03/03 14:03:31;;;;;;;50.20;33.37;;;9.10;99.90;;;;;;4885187;29;20458;-70
2023/03/03 14:06:02;;;;;;;50.20;30.50;;;9.00;99.90;;;;;;4885563;29;20501;-71
2023/03/03 14:08:51;;;;;;;52.50;28.30;;;9.60;99.90;;;;;;4889163;29;20468;-71
2023/03/03 14:11:32;;;;;;;41.20;25.70;;;9.60;99.90;;;;;;4887266;29;20454;-70
2023/03/03 14:14:09;;;;;;;51.30;29.57;;;10.70;99.90;;;;;;4890406;29;20457;-70
2023/03/03 14:16:50;;;;;;;45.00;28.93;;;11.80;99.90;;;;;;4880266;29;21229;-70
2023/03/03 14:19:21;;;;;;;47.07;27.83;;;10.20;99.90;;;;;;4892614;29;20441;-70
2023/03/03 14:22:02;;;;;;;45.70;27.03;;;11.10;99.90;;;;;;4892214;29;20457;-71
2023/03/03 14:24:31;;;;;;;41.90;28.30;;;12.00;99.90;;;;;;4893181;29;20453;-70
2023/03/03 14:26:59;;;;;;;49.70;28.50;;;12.50;99.90;;;;;;4892908;29;20557;-70
2023/03/03 14:29:32;;;;;;;42.43;27.80;;;10.10;99.90;;;;;;4892844;29;20472;-70
2023/03/03 14:32:01;;;;;;;45.77;27.53;;;9.90;99.90;;;;;;4892569;29;20831;-73
2023/03/03 14:34:37;;;;;;;46.63;29.40;;;11.10;99.90;;;;;;4892420;29;20476;-70
2023/03/03 14:37:26;;;;;;;50.10;29.50;;;9.80;99.90;;;;;;4892745;29;20460;-70
2023/03/03 14:40:18;;;;;;;48.90;27.03;;;9.20;99.90;;;;;;4889243;29;20944;-70
2023/03/03 14:42:54;;;;;;;47.50;27.50;;;9.60;99.90;;;;;;4889980;29;20466;-70
2023/03/03 14:45:32;;;;;;;42.40;28.87;;;9.70;99.90;;;;;;4893187;29;20445;-71
2023/03/03 14:48:00;;;;;;;43.80;26.70;;;10.20;99.90;;;;;;4893742;29;21237;-70
2023/03/03 14:50:34;;;;;;;49.67;28.10;;;8.10;99.90;;;;;;4907235;29;20787;-72
2023/03/03 14:53:12;;;;;;;50.93;30.10;;;7.60;99.90;;;;;;4894402;29;20476;-72
2023/03/03 14:55:43;;;;;;;56.20;27.03;;;7.40;99.90;;;;;;4894238;29;21016;-73
2023/03/03 14:58:30;;;;;;;44.97;28.67;;;7.10;99.90;;;;;;4894674;29;20516;-73
2023/03/03 15:01:21;;;;;;;54.20;31.03;;;6.90;99.90;;;;;;4894202;29;20500;-73
2023/03/03 15:03:51;;;;;;;45.60;26.13;;;6.90;99.90;;;;;;4894004;29;20457;-72
2023/03/03 15:06:30;;;;;;;40.80;24.37;;;7.10;99.90;;;;;;4892820;29;20505;-72
2023/03/03 15:09:17;;;;;;;44.80;26.00;;;7.60;99.90;;;;;;4879452;29;20466;-69
2023/03/03 15:11:45;;;;;;;46.97;26.30;;;8.10;99.90;;;;;;4873832;29;20454;-70
2023/03/03 15:14:15;;;;;;;51.70;26.20;;;7.90;99.90;;;;;;4874074;29;20462;-71
2023/03/03 15:16:43;;;;;;;45.63;25.13;;;7.90;99.90;;;;;;4880962;29;20449;-73
2023/03/03 15:19:43;;;;;;;51.03;27.90;;;7.30;99.90;;;;;;4892334;29;20464;-71
2023/03/03 15:22:19;;;;;;;48.03;26.53;;;7.20;99.90;;;;;;4892077;29;20454;-71
2023/03/03 15:24:56;;;;;;;48.90;26.30;;;7.30;99.90;;;;;;4891883;29;20468;-72
2023/03/03 15:27:28;;;;;;;53.73;27.13;;;7.20;99.90;;;;;;4891855;29;20500;-71
2023/03/03 15:30:07;;;;;;;50.87;27.30;;;7.20;99.90;;;;;;4891885;29;20457;-71
2023/03/03 15:32:41;;;;;;;52.20;28.00;;;7.80;99.90;;;;;;4891822;29;20472;-71
2023/03/03 15:35:23;;;;;;;49.23;26.33;;;8.10;99.90;;;;;;4891790;29;20450;-71
2023/03/03 15:37:56;;;;;;;58.53;29.03;;;8.50;99.90;;;;;;4891495;29;20458;-69
2023/03/03 15:40:27;;;;;;;52.80;28.93;;;8.60;99.90;;;;;;4891910;29;20483;-70
2023/03/03 15:43:04;;;;;;;51.27;28.80;;;8.70;99.90;;;;;;4891818;29;20441;-69
2023/03/03 15:45:36;;;;;;;44.13;28.07;;;9.30;99.90;;;;;;4891888;29;20453;-70
2023/03/03 15:48:19;;;;;;;46.50;27.73;;;9.40;99.90;;;;;;4891676;29;20488;-71
2023/03/03 15:50:52;;;;;;;46.50;27.40;;;8.90;99.90;;;;;;4891462;29;20462;-70
2023/03/03 15:53:39;;;;;;;51.67;27.10;;;8.30;99.90;;;;;;4891131;29;20464;-70
2023/03/03 15:56:20;;;;;;;49.83;28.20;;;9.40;99.90;;;;;;4891191;29;20461;-70
2023/03/03 15:59:29;;;;;;;49.10;29.53;;;11.30;99.90;;;;;;4891512;29;20460;-70
2023/03/03 16:02:09;;;;;;;46.13;27.63;;;9.60;99.90;;;;;;4887517;29;20501;-70
2023/03/03 16:04:40;;;;;;;46.13;26.77;;;8.40;99.90;;;;;;4891011;29;21169;-71
2023/03/03 16:07:18;;;;;;;53.93;28.77;;;8.60;99.90;;;;;;4891168;29;21189;-70
2023/03/03 16:09:55;;;;;;;46.33;27.30;;;8.40;99.90;;;;;;4882190;29;20458;-70
2023/03/03 16:12:31;;;;;;;44.50;26.93;;;8.10;99.90;;;;;;4891240;29;21225;-72
2023/03/03 16:15:17;;;;;;;50.30;26.57;;;7.30;99.90;;;;;;4891186;29;21236;-71
2023/03/03 16:17:59;;;;;;;46.53;27.13;;;7.20;99.90;;;;;;4891100;29;20469;-73
2023/03/03 16:20:37;;;;;;;49.63;28.50;;;7.30;99.90;;;;;;4891156;29;20465;-73
2023/03/03 16:23:21;;;;;;;52.43;27.90;;;7.20;99.90;;;;;;4882919;29;20479;-73
2023/03/03 16:26:03;;;;;;;50.80;25.90;;;7.00;99.90;;;;;;4890396;29;20465;-73
2023/03/03 16:28:40;;;;;;;52.80;29.27;;;7.10;99.90;;;;;;4882348;29;20469;-68
2023/03/03 16:31:13;;;;;;;51.90;29.13;;;7.00;99.90;;;;;;4889564;29;21086;-70
2023/03/03 16:33:46;;;;;;;53.83;29.27;;;6.90;99.90;;;;;;4889203;29;20541;-70
2023/03/03 16:36:27;;;;;;;51.33;30.33;;;6.90;99.90;;;;;;4889548;29;20457;-69
2023/03/03 16:39:02;;;;;;;49.37;28.90;;;6.90;99.90;;;;;;4885373;29;20489;-70
2023/03/03 16:41:42;;;;;;;52.63;30.00;;;6.70;99.90;;;;;;4881832;29;20459;-71
2023/03/03 16:44:23;;;;;;;55.07;30.03;;;6.70;99.90;;;;;;4871604;29;20466;-69
2023/03/03 16:46:51;;;;;;;54.40;29.50;;;6.60;99.90;;;;;;4875932;29;20493;-71
2023/03/03 16:49:24;;;;;;;48.57;27.80;;;6.60;99.90;;;;;;4890669;29;20860;-70
2023/03/03 16:51:55;;;;;;;47.07;26.93;;;6.60;99.90;;;;;;4890584;29;20819;-69
2023/03/03 16:54:35;;;;;;;51.07;28.10;;;6.50;99.90;;;;;;4890652;29;20759;-70
2023/03/03 16:57:09;;;;;;;51.97;27.03;;;6.50;99.90;;;;;;4889401;29;20841;-71
2023/03/03 16:59:48;;;;;;;61.87;31.27;;;6.40;99.90;;;;;;4890815;29;20461;-69
2023/03/03 17:02:42;;;;;;;55.47;29.70;;;6.40;99.90;;;;;;4890492;29;20480;-71
2023/03/03 17:05:20;;;;;;;51.07;30.20;;;6.40;99.90;;;;;;4888851;29;20830;-80
2023/03/03 17:07:57;;;;;;;46.93;28.30;;;6.30;99.90;;;;;;4883809;29;20588;-74
2023/03/03 17:10:27;;;;;;;50.60;29.27;;;6.30;99.90;;;;;;4872621;29;21019;-78
2023/03/03 17:13:27;;;;;;;46.97;28.23;;;6.30;99.90;;;;;;4882960;29;20534;-80
2023/03/03 17:16:08;;;;;;;62.03;29.07;;;6.20;99.90;;;;;;4871391;29;20982;-83
2023/03/03 17:18:47;;;;;;;47.60;26.87;;;6.10;99.90;;;;;;4871771;29;20478;-84
2023/03/03 17:21:24;;;;;;;47.70;28.03;;;6.10;99.90;;;;;;4878881;29;20477;-83
2023/03/03 17:24:14;;;;;;;54.10;28.63;;;6.00;99.90;;;;;;4877750;29;20498;-85
2023/03/03 17:26:57;;;;;;;57.83;30.27;;;6.00;99.90;;;;;;4879789;29;20494;-85
2023/03/03 17:29:43;;;;;;;58.43;29.70;;;6.00;99.90;;;;;;4872998;29;20798;-85
2023/03/03 17:32:22;;;;;;;54.70;28.57;;;5.90;99.90;;;;;;4882857;29;20460;-85
2023/03/03 17:35:10;;;;;;;53.30;30.00;;;5.90;99.90;;;;;;4891056;29;21258;-86
2023/03/03 17:37:46;;;;;;;49.50;27.07;;;5.90;99.90;;;;;;4889964;29;20932;-86
2023/03/03 17:40:23;;;;;;;54.93;28.23;;;5.80;99.90;;;;;;4891604;29;20476;-85
2023/03/03 17:42:57;;;;;;;69.30;29.17;;;5.80;99.90;;;;;;4890999;29;20544;-85
2023/03/03 17:45:26;;;;;;;47.03;28.20;;;5.80;99.90;;;;;;4892223;29;20462;-86
2023/03/03 17:48:15;;;;;;;65.33;31.27;;;5.70;99.90;;;;;;4891779;29;20515;-88
2023/03/03 17:51:21;;;;;;;56.70;30.57;;;5.70;99.90;;;;;;4890696;29;20461;-84
2023/03/03 17:54:02;;;;;;;59.43;28.60;;;5.80;99.90;;;;;;4820562;29;21018;-84
2023/03/03 17:56:32;;;;;;;51.90;29.33;;;5.70;99.90;;;;;;4873558;29;20454;-85
2023/03/03 17:59:25;;;;;;;47.00;28.40;;;5.70;99.90;;;;;;4873247;29;20530;-86
2023/03/03 18:02:07;;;;;;;56.83;28.83;;;5.60;99.90;;;;;;4877051;29;20477;-88
2023/03/03 18:04:55;;;;;;;61.30;31.37;;;5.80;99.90;;;;;;4890896;29;20557;-84
2023/03/03 18:07:45;;;;;;;66.33;31.63;;;5.50;99.90;;;;;;4891066;29;20489;-86
2023/03/03 18:10:37;;;;;;;60.43;35.23;;;5.50;99.90;;;;;;4891741;29;20910;-84
2023/03/03 18:13:23;;;;;;;66.80;33.03;;;5.40;99.90;;;;;;4891368;29;20946;-84
2023/03/03 18:16:01;;;;;;;71.40;32.27;;;5.20;99.90;;;;;;4887996;29;20576;-83
2023/03/03 18:18:44;;;;;;;62.80;32.63;;;5.20;99.90;;;;;;4875016;29;20457;-80
2023/03/03 18:21:15;;;;;;;66.63;33.37;;;5.20;99.90;;;;;;4879200;29;20477;-76
2023/03/03 18:23:44;;;;;;;67.33;34.50;;;5.10;99.90;;;;;;4892558;29;20461;-77